Time;durP1;ratioP1;P1;durP2;ratioP2;P2;SDS_P1;SDS_P2;PMS_P1;PMS_P2;Temp;Humidity;BMP_temperature;BMP_pressure;BME280_temperature;BME280_humidity;BME280_pressure;Samples;Min_cycle;Max_cycle;Signal;HPM_P1;HPM_P2
2024/01/23 00:02:23;;;;;;;32.25;3.50;;;;;;;10.51;79.33;100738.34;8307997;28;20046;-56
2024/01/23 00:06:24;;;;;;;23.45;3.63;;;;;;;10.56;78.58;100738.81;8305381;28;20038;-55
2024/01/23 00:10:25;;;;;;;21.90;3.42;;;;;;;10.49;79.30;100744.91;8305917;28;20041;-56
2024/01/23 00:14:26;;;;;;;31.15;3.88;;;;;;;10.40;79.87;100751.94;8319439;28;20045;-58
2024/01/23 00:18:26;;;;;;;22.42;3.10;;;;;;;10.32;80.74;100757.19;8321138;28;20412;-59
2024/01/23 00:22:26;;;;;;;29.25;3.53;;;;;;;10.29;81.25;100760.13;8308212;28;20042;-58
2024/01/23 00:26:27;;;;;;;31.35;3.60;;;;;;;10.06;83.05;100780.13;8304098;28;20038;-59
2024/01/23 00:30:27;;;;;;;25.80;2.97;;;;;;;10.08;82.53;100794.41;8302968;28;20500;-59
2024/01/23 00:34:28;;;;;;;30.80;4.25;;;;;;;10.03;82.79;100796.59;8305221;28;20072;-57
2024/01/23 00:38:28;;;;;;;23.48;2.92;;;;;;;9.99;83.23;100816.75;8310491;28;20061;-57
2024/01/23 00:42:29;;;;;;;19.92;3.28;;;;;;;9.96;83.23;100822.41;8314070;28;20081;-56
2024/01/23 00:46:29;;;;;;;24.33;3.50;;;;;;;10.00;82.91;100834.66;8315131;28;20037;-57
2024/01/23 00:50:30;;;;;;;20.42;3.13;;;;;;;10.03;83.42;100850.63;8315266;28;20070;-57
2024/01/23 00:54:30;;;;;;;26.95;3.58;;;;;;;10.05;83.39;100848.66;8313203;28;20515;-59
2024/01/23 00:58:31;;;;;;;25.00;3.65;;;;;;;10.10;82.84;100864.50;8311993;28;20041;-57
2024/01/23 01:02:32;;;;;;;31.55;3.17;;;;;;;10.14;82.72;100874.94;8313723;28;20045;-59
2024/01/23 01:06:32;;;;;;;22.17;3.38;;;;;;;9.70;90.87;100869.66;8313517;28;20041;-58
2024/01/23 01:10:33;;;;;;;22.52;3.35;;;;;;;9.41;92.95;100868.47;8310847;28;20043;-58
2024/01/23 01:14:34;;;;;;;20.20;3.35;;;;;;;9.18;95.48;100901.84;8310788;28;21616;-58
2024/01/23 01:18:36;;;;;;;26.05;4.22;;;;;;;9.08;99.07;100917.03;8276249;28;20101;-58
2024/01/23 01:22:38;;;;;;;24.20;4.10;;;;;;;9.06;99.28;100917.13;8279516;28;20121;-59
2024/01/23 01:26:39;;;;;;;30.52;4.00;;;;;;;9.09;97.29;100926.84;8279546;28;20037;-59
2024/01/23 01:30:39;;;;;;;27.67;4.38;;;;;;;9.09;96.65;100927.69;8278743;28;20053;-58
2024/01/23 01:34:40;;;;;;;21.95;3.25;;;;;;;9.04;96.78;100938.00;8279547;28;20092;-58
2024/01/23 01:38:40;;;;;;;34.45;3.75;;;;;;;9.07;96.08;100935.06;8279924;28;20125;-59
2024/01/23 01:42:41;;;;;;;33.33;4.43;;;;;;;9.16;95.63;100936.16;8279436;28;20134;-58
2024/01/23 01:46:43;;;;;;;30.30;3.90;;;;;;;9.16;94.26;100930.78;8275861;28;20511;-58
2024/01/23 01:50:44;;;;;;;23.85;2.83;;;;;;;9.20;93.16;100940.31;8277999;28;20033;-58
2024/01/23 01:54:46;;;;;;;25.00;3.35;;;;;;;9.19;92.55;100942.19;8278590;28;20034;-57
2024/01/23 01:58:47;;;;;;;37.00;3.85;;;;;;;9.19;91.05;100939.50;8277044;28;20034;-58
2024/01/23 02:02:50;;;;;;;29.15;3.95;;;;;;;9.13;91.58;100947.19;8278826;28;20049;-58
2024/01/23 02:06:51;;;;;;;28.48;4.63;;;;;;;9.07;91.84;100961.16;8278150;28;20045;-58
2024/01/23 02:10:54;;;;;;;28.08;3.65;;;;;;;9.05;91.74;100974.75;8277766;28;20092;-59
2024/01/23 02:14:54;;;;;;;35.17;5.03;;;;;;;9.08;90.83;100969.13;8277599;28;20412;-59
2024/01/23 02:18:55;;;;;;;29.00;3.60;;;;;;;9.05;90.51;100982.00;8283746;28;20062;-58
2024/01/23 02:22:58;;;;;;;35.75;4.45;;;;;;;9.01;91.12;100999.41;8276064;28;20049;-57
2024/01/23 02:26:58;;;;;;;25.95;3.10;;;;;;;9.10;89.72;101014.88;8277936;28;20050;-56
2024/01/23 02:30:58;;;;;;;26.33;3.67;;;;;;;9.16;89.31;101027.88;8278406;28;20546;-56
2024/01/23 02:34:59;;;;;;;33.88;4.03;;;;;;;9.17;88.99;101029.59;8278367;28;20092;-56
2024/01/23 02:38:59;;;;;;;29.98;3.88;;;;;;;9.14;88.34;101035.22;8277892;28;20110;-58
2024/01/23 02:43:00;;;;;;;29.25;3.85;;;;;;;9.09;89.28;101043.66;8277689;28;20128;-58
2024/01/23 02:47:00;;;;;;;31.75;3.90;;;;;;;9.08;89.94;101050.06;8273534;28;20037;-58
2024/01/23 02:51:01;;;;;;;32.63;3.83;;;;;;;9.10;89.23;101063.41;8271413;28;20046;-57
2024/01/23 02:55:01;;;;;;;22.52;3.60;;;;;;;9.15;89.06;101069.31;8272673;28;20477;-56
2024/01/23 02:59:02;;;;;;;26.77;3.78;;;;;;;9.15;89.23;101074.72;8276941;28;20049;-57
2024/01/23 03:03:03;;;;;;;34.22;4.13;;;;;;;9.14;89.25;101072.97;8276864;28;20042;-57
2024/01/23 03:07:03;;;;;;;25.65;3.80;;;;;;;9.20;88.76;101080.59;8277696;28;20037;-58
2024/01/23 03:11:04;;;;;;;25.42;3.47;;;;;;;9.16;89.05;101092.63;8276260;28;20116;-56
2024/01/23 03:15:05;;;;;;;30.95;3.42;;;;;;;9.20;87.71;101086.88;8272872;28;20068;-59
2024/01/23 03:19:05;;;;;;;35.90;4.63;;;;;;;9.20;88.03;101102.19;8277785;28;20030;-58
2024/01/23 03:23:08;;;;;;;23.80;3.58;;;;;;;9.21;88.35;101093.13;8276911;28;20065;-57
2024/01/23 03:27:08;;;;;;;22.23;4.43;;;;;;;9.23;88.13;101107.34;8275928;28;20061;-57
2024/01/23 03:31:09;;;;;;;26.10;4.03;;;;;;;9.22;87.99;101105.63;8275269;28;20611;-58
2024/01/23 03:35:09;;;;;;;29.27;4.43;;;;;;;9.21;88.60;101125.50;8278660;28;20040;-56
2024/01/23 03:39:09;;;;;;;25.92;3.92;;;;;;;9.31;88.03;101126.50;8275674;28;20507;-58
2024/01/23 03:43:10;;;;;;;29.58;4.75;;;;;;;9.19;89.13;101130.16;8275183;28;20375;-58
2024/01/23 03:47:10;;;;;;;29.13;3.80;;;;;;;9.20;88.69;101129.16;8271666;28;20061;-57
2024/01/23 03:51:11;;;;;;;26.73;3.50;;;;;;;9.20;87.69;101146.22;8274703;28;20417;-56
2024/01/23 03:55:12;;;;;;;29.65;4.15;;;;;;;9.21;88.05;101152.50;8276215;28;20042;-55
2024/01/23 03:59:12;;;;;;;40.20;5.72;;;;;;;9.17;88.21;101156.38;8275454;28;20423;-58
2024/01/23 04:03:12;;;;;;;29.33;4.68;;;;;;;9.09;88.96;101164.19;8276113;28;20087;-58
2024/01/23 04:07:13;;;;;;;32.13;4.13;;;;;;;9.04;88.02;101166.38;8275526;28;20491;-58
2024/01/23 04:11:13;;;;;;;23.27;4.10;;;;;;;9.01;88.50;101178.25;8273821;28;20400;-59
2024/01/23 04:15:14;;;;;;;27.10;4.20;;;;;;;8.88;89.57;101199.00;8271247;28;20077;-58
2024/01/23 04:19:14;;;;;;;29.73;3.92;;;;;;;8.79;89.72;101205.09;8277758;28;20045;-58
2024/01/23 04:23:16;;;;;;;24.08;3.45;;;;;;;8.69;89.95;101200.50;8274707;28;20041;-55
2024/01/23 04:27:16;;;;;;;39.03;4.47;;;;;;;8.64;90.45;101206.22;8274747;28;20065;-58
2024/01/23 04:31:16;;;;;;;39.42;4.05;;;;;;;8.67;90.64;101216.78;8305502;28;20039;-58
2024/01/23 04:35:18;;;;;;;25.27;3.78;;;;;;;8.64;91.06;101229.59;8274887;28;20046;-59
2024/01/23 04:39:19;;;;;;;30.67;4.45;;;;;;;8.59;90.33;101234.44;8275497;28;20042;-58
2024/01/23 04:43:19;;;;;;;33.10;5.50;;;;;;;8.52;90.75;101246.66;8275649;28;20390;-58
2024/01/23 04:47:19;;;;;;;32.97;4.53;;;;;;;8.50;90.49;101257.53;8271267;28;20046;-59
2024/01/23 04:51:20;;;;;;;23.95;4.05;;;;;;;8.46;90.18;101256.03;8274544;28;20084;-58
2024/01/23 04:55:20;;;;;;;38.10;4.43;;;;;;;8.43;90.10;101258.09;8275062;28;20108;-58
2024/01/23 04:59:21;;;;;;;31.92;4.07;;;;;;;8.40;90.52;101271.78;8270571;28;20031;-58
2024/01/23 05:03:21;;;;;;;32.78;4.40;;;;;;;8.30;90.53;101270.69;8289397;28;20045;-58
2024/01/23 05:07:22;;;;;;;34.47;4.82;;;;;;;8.33;89.86;101292.03;8299094;28;20092;-57
2024/01/23 05:11:22;;;;;;;25.70;3.67;;;;;;;8.31;89.37;101304.75;8307758;28;20029;-58
2024/01/23 05:15:22;;;;;;;29.13;3.40;;;;;;;8.17;89.94;101327.22;8310606;28;20045;-57
2024/01/23 05:19:23;;;;;;;32.45;4.45;;;;;;;8.18;89.41;101330.78;8313112;28;20046;-58
2024/01/23 05:23:25;;;;;;;30.08;4.70;;;;;;;8.10;89.83;101342.06;8306364;28;20038;-58
2024/01/23 05:27:26;;;;;;;25.38;4.28;;;;;;;8.12;90.05;101341.97;8313153;28;20033;-58
2024/01/23 05:31:27;;;;;;;29.02;4.35;;;;;;;8.21;89.56;101352.13;8312072;28;20029;-58
2024/01/23 05:35:27;;;;;;;24.50;3.90;;;;;;;8.12;89.77;101352.75;8312920;28;20519;-58
2024/01/23 05:39:29;;;;;;;22.65;3.63;;;;;;;8.17;89.22;101369.47;8315741;28;20037;-59
2024/01/23 05:43:29;;;;;;;23.90;3.95;;;;;;;8.17;88.94;101382.94;8308302;28;20041;-59
2024/01/23 05:47:30;;;;;;;28.45;3.95;;;;;;;8.19;88.27;101391.75;8308124;28;20069;-58
2024/01/23 05:51:30;;;;;;;24.10;3.42;;;;;;;8.11;88.80;101394.13;8303948;28;20037;-57
2024/01/23 05:55:31;;;;;;;20.40;3.20;;;;;;;8.12;88.35;101412.00;8308821;28;20357;-58
2024/01/23 05:59:32;;;;;;;26.75;3.20;;;;;;;8.08;88.47;101424.78;8313938;28;20091;-58
2024/01/23 06:03:32;;;;;;;23.25;4.18;;;;;;;8.07;88.77;101437.41;8323549;28;20078;-58
2024/01/23 06:07:38;;;;;;;24.20;3.65;;;;;;;8.05;88.72;101439.34;8328877;28;20043;-57
2024/01/23 06:11:39;;;;;;;21.00;2.67;;;;;;;8.05;88.36;101458.19;8326175;28;20060;-58
2024/01/23 06:15:42;;;;;;;24.85;3.35;;;;;;;8.05;88.48;101462.69;8335147;28;20427;-57
2024/01/23 06:19:42;;;;;;;26.90;4.00;;;;;;;7.93;89.11;101461.69;8338036;28;20048;-57
2024/01/23 06:23:43;;;;;;;26.33;4.30;;;;;;;8.07;88.36;101458.94;8336175;28;20041;-59
2024/01/23 06:27:43;;;;;;;28.02;3.97;;;;;;;8.01;88.64;101463.88;8334473;28;20037;-57
2024/01/23 06:31:44;;;;;;;29.88;4.13;;;;;;;8.08;87.72;101455.28;8337067;28;20091;-55
2024/01/23 06:35:44;;;;;;;24.65;4.00;;;;;;;8.01;88.69;101472.81;8314016;28;20071;-58
2024/01/23 06:39:45;;;;;;;20.30;3.25;;;;;;;8.03;88.33;101473.56;8335653;28;20438;-55
2024/01/23 06:43:45;;;;;;;27.65;4.05;;;;;;;8.13;87.90;101481.03;8323390;28;20447;-57
2024/01/23 06:47:46;;;;;;;33.65;3.40;;;;;;;8.00;88.76;101487.22;8320372;28;20045;-57
2024/01/23 06:51:46;;;;;;;26.58;3.72;;;;;;;7.86;89.29;101503.44;8322599;28;20053;-57
2024/01/23 06:55:48;;;;;;;28.83;3.55;;;;;;;7.89;89.04;101511.31;8295889;28;20034;-58
2024/01/23 06:59:48;;;;;;;17.02;2.35;;;;;;;7.89;89.17;101524.78;8275024;28;20590;-57
2024/01/23 07:03:49;;;;;;;23.55;3.45;;;;;;;7.79;90.19;101523.66;8293002;28;20533;-58
2024/01/23 07:07:49;;;;;;;34.70;3.65;;;;;;;7.75;90.51;101532.88;8275327;28;20271;-57
2024/01/23 07:11:53;;;;;;;24.45;3.20;;;;;;;7.78;90.23;101532.66;8273263;28;20475;-57
2024/01/23 07:15:53;;;;;;;28.38;4.75;;;;;;;7.82;89.64;101536.91;8266066;28;20298;-57
2024/01/23 07:19:54;;;;;;;29.35;3.90;;;;;;;7.85;89.45;101539.41;8286002;28;20095;-58
2024/01/23 07:23:54;;;;;;;18.17;3.35;;;;;;;7.83;89.68;101552.09;8305946;28;20044;-58
2024/01/23 07:27:55;;;;;;;27.30;4.03;;;;;;;7.96;88.89;101542.25;8303942;28;20049;-57
2024/01/23 07:31:55;;;;;;;19.17;3.38;;;;;;;8.07;88.34;101546.94;8314964;28;20037;-57
2024/01/23 07:35:56;;;;;;;25.60;3.05;;;;;;;8.25;85.86;101558.38;8309306;28;20041;-58
2024/01/23 07:39:58;;;;;;;24.45;4.32;;;;;;;8.26;86.07;101560.97;8305942;28;20070;-56
2024/01/23 07:43:58;;;;;;;33.70;4.78;;;;;;;8.17;87.10;101566.94;8307012;28;20045;-58
2024/01/23 07:47:59;;;;;;;35.70;5.75;;;;;;;8.08;87.83;101573.78;8296555;28;20566;-58
2024/01/23 07:51:59;;;;;;;20.73;3.20;;;;;;;8.11;88.11;101566.47;8310244;28;20038;-56
2024/01/23 07:56:00;;;;;;;24.45;3.92;;;;;;;8.08;87.58;101573.78;8302625;28;20192;-56
2024/01/23 08:00:00;;;;;;;27.20;3.00;;;;;;;7.97;89.05;101573.59;8301884;28;20515;-57
2024/01/23 08:04:01;;;;;;;21.90;3.35;;;;;;;8.00;88.87;101565.31;8305069;28;20580;-57
2024/01/23 08:08:01;;;;;;;17.85;3.45;;;;;;;8.00;88.94;101576.09;8305775;28;20048;-57
2024/01/23 08:12:02;;;;;;;23.73;3.85;;;;;;;7.97;89.71;101587.06;8306016;28;20052;-56
2024/01/23 08:16:02;;;;;;;28.52;3.85;;;;;;;8.02;89.21;101589.47;8305726;28;20041;-55
2024/01/23 08:20:03;;;;;;;23.65;4.43;;;;;;;8.19;88.21;101602.72;8305500;28;20053;-56
2024/01/23 08:24:04;;;;;;;19.77;3.97;;;;;;;8.26;87.70;101598.69;8305467;28;20049;-57
2024/01/23 08:28:05;;;;;;;21.83;3.83;;;;;;;8.29;87.83;101614.66;8305497;28;20670;-57
2024/01/23 08:32:05;;;;;;;29.77;3.67;;;;;;;8.26;88.75;101608.63;8306520;28;20048;-58
2024/01/23 08:36:06;;;;;;;24.88;3.58;;;;;;;8.31;88.65;101622.63;8306493;28;20064;-58
2024/01/23 08:40:07;;;;;;;27.00;3.97;;;;;;;8.36;88.43;101631.31;8306464;28;20053;-59
2024/01/23 08:44:07;;;;;;;26.92;3.80;;;;;;;8.43;88.71;101643.41;8306268;28;20040;-58
2024/01/23 08:48:08;;;;;;;31.90;4.80;;;;;;;8.47;89.31;101644.91;8297152;28;20034;-59
2024/01/23 08:52:10;;;;;;;25.42;4.25;;;;;;;8.60;88.54;101648.56;8313526;28;20532;-58
2024/01/23 08:56:10;;;;;;;23.35;3.63;;;;;;;8.68;88.32;101654.31;8306898;28;20042;-57
2024/01/23 09:00:12;;;;;;;27.63;5.05;;;;;;;8.87;88.25;101660.22;8309938;28;20046;-57
2024/01/23 09:04:12;;;;;;;26.00;3.90;;;;;;;9.62;84.85;101661.28;8314996;28;20045;-59
2024/01/23 09:08:13;;;;;;;24.73;3.75;;;;;;;10.53;80.53;101644.78;8314556;28;20041;-58
2024/01/23 09:12:16;;;;;;;34.03;3.60;;;;;;;10.98;78.15;101644.03;8323392;28;20048;-58
2024/01/23 09:16:16;;;;;;;21.65;4.07;;;;;;;11.21;77.33;101654.00;8313675;28;20038;-58
2024/01/23 09:20:17;;;;;;;24.88;3.88;;;;;;;11.64;75.81;101663.28;8316356;28;20510;-58
2024/01/23 09:24:17;;;;;;;26.17;4.55;;;;;;;11.88;74.32;101672.22;8319586;28;20577;-58
2024/01/23 09:28:18;;;;;;;28.13;4.32;;;;;;;11.89;74.05;101668.50;8317749;28;20041;-57
2024/01/23 09:32:18;;;;;;;28.60;4.00;;;;;;;12.00;73.73;101680.34;8325824;28;20034;-56
2024/01/23 09:36:18;;;;;;;29.60;3.97;;;;;;;12.22;73.25;101685.75;8322854;28;20041;-58
2024/01/23 09:40:19;;;;;;;16.33;2.67;;;;;;;12.29;72.44;101700.59;8321154;28;20419;-57
2024/01/23 09:44:20;;;;;;;26.17;4.25;;;;;;;12.32;72.01;101694.91;8309601;28;20436;-55
2024/01/23 09:48:20;;;;;;;22.58;3.30;;;;;;;12.42;71.49;101698.59;8314593;28;20065;-57
2024/01/23 09:52:22;;;;;;;26.17;3.92;;;;;;;12.51;71.37;101697.88;8309770;28;20042;-58
2024/01/23 09:56:23;;;;;;;22.63;3.38;;;;;;;12.65;70.49;101684.03;8309756;28;20037;-58
2024/01/23 10:00:23;;;;;;;27.42;4.32;;;;;;;12.99;68.99;101672.13;8311363;28;20116;-58
2024/01/23 10:04:25;;;;;;;33.05;4.60;;;;;;;13.22;68.28;101673.81;8325386;28;20041;-58
2024/01/23 10:08:25;;;;;;;23.25;3.45;;;;;;;13.36;67.46;101678.94;8324784;28;20041;-57
2024/01/23 10:12:26;;;;;;;26.27;3.80;;;;;;;13.70;67.00;101677.78;8325371;28;20087;-58
2024/01/23 10:16:27;;;;;;;22.13;3.97;;;;;;;13.49;66.48;101699.50;8310084;28;20099;-56
2024/01/23 10:20:30;;;;;;;29.95;3.63;;;;;;;13.58;65.95;101714.16;8312403;28;20404;-56
2024/01/23 10:24:30;;;;;;;26.77;3.70;;;;;;;13.46;66.58;101704.31;8308478;28;20053;-58
2024/01/23 10:28:31;;;;;;;26.30;3.78;;;;;;;13.86;65.71;101708.06;8309859;28;20045;-57
2024/01/23 10:32:31;;;;;;;24.52;3.83;;;;;;;13.34;66.71;101694.50;8309109;28;20206;-57
2024/01/23 10:36:32;;;;;;;22.05;3.60;;;;;;;13.63;65.87;101714.59;8308916;28;20038;-57
2024/01/23 10:40:33;;;;;;;22.50;4.28;;;;;;;13.59;66.66;101700.44;8308220;28;20051;-56
2024/01/23 10:44:34;;;;;;;19.75;3.80;;;;;;;13.95;64.77;101696.41;8322415;28;20048;-57
2024/01/23 10:48:34;;;;;;;29.80;3.55;;;;;;;13.93;65.89;101698.38;8324240;28;20037;-58
2024/01/23 10:52:39;;;;;;;30.02;4.03;;;;;;;14.00;64.12;101694.13;8324251;28;20488;-58
2024/01/23 10:56:45;;;;;;;21.83;3.88;;;;;;;13.76;64.70;101697.13;8322516;28;20519;-58
2024/01/23 11:00:49;;;;;;;29.73;3.40;;;;;;;13.58;65.39;101697.84;8322283;28;20065;-57
2024/01/23 11:04:51;;;;;;;32.85;4.85;;;;;;;13.99;64.58;101702.44;8313600;28;20061;-60
2024/01/23 11:09:00;;;;;;;23.50;3.78;;;;;;;13.48;65.25;101696.91;8307612;28;20068;-58
2024/01/23 11:13:10;;;;;;;24.27;4.05;;;;;;;12.96;67.69;101699.53;8307349;28;20045;-58
2024/01/23 11:17:13;;;;;;;29.73;3.97;;;;;;;12.81;68.11;101689.94;8306961;28;20487;-58
2024/01/23 11:21:14;;;;;;;23.23;3.58;;;;;;;12.28;69.59;101678.00;8305628;28;20045;-57
2024/01/23 11:25:17;;;;;;;17.13;3.33;;;;;;;11.95;71.58;101683.41;8306227;28;20045;-58
2024/01/23 11:29:18;;;;;;;25.63;3.58;;;;;;;12.00;70.67;101669.50;8307118;28;20076;-57
2024/01/23 11:33:23;;;;;;;27.88;3.60;;;;;;;11.96;72.85;101684.28;8307717;28;20571;-57
2024/01/23 11:37:44;;;;;;;22.65;3.72;;;;;;;11.52;73.39;101685.00;8304108;28;20204;-58
2024/01/23 11:41:48;;;;;;;28.58;4.57;;;;;;;11.24;74.98;101686.25;8306520;28;20412;-56
2024/01/23 11:45:49;;;;;;;22.40;2.92;;;;;;;11.02;75.33;101678.03;8303616;28;20419;-57
2024/01/23 11:49:50;;;;;;;28.98;4.10;;;;;;;10.84;76.63;101651.47;8306803;28;20062;-57
2024/01/23 11:53:56;;;;;;;30.13;4.00;;;;;;;10.95;76.47;101641.56;8307094;28;20041;-57
2024/01/23 11:57:58;;;;;;;24.05;4.18;;;;;;;11.02;76.26;101632.03;8303752;28;20050;-58
2024/01/23 12:01:59;;;;;;;23.55;4.18;;;;;;;10.92;76.20;101622.00;8307024;28;20438;-56
2024/01/23 12:06:00;;;;;;;24.65;4.03;;;;;;;10.98;76.92;101630.50;8306899;28;20048;-57
2024/01/23 12:10:01;;;;;;;23.40;3.65;;;;;;;10.97;77.32;101634.22;8305533;28;20474;-56
2024/01/23 12:14:01;;;;;;;27.08;3.63;;;;;;;10.86;77.25;101646.81;8307316;28;20134;-59
2024/01/23 12:18:03;;;;;;;29.65;3.58;;;;;;;10.83;77.60;101652.47;8305421;28;20041;-57
2024/01/23 12:22:04;;;;;;;24.15;3.80;;;;;;;10.81;77.07;101633.66;8305504;28;20045;-58
2024/01/23 12:26:04;;;;;;;24.98;3.63;;;;;;;10.85;77.67;101618.91;8307203;28;20052;-58
2024/01/23 12:30:11;;;;;;;29.55;5.03;;;;;;;11.12;75.51;101611.41;8308916;28;20104;-57
2024/01/23 12:34:12;;;;;;;26.67;4.10;;;;;;;11.11;75.00;101609.69;8324720;28;20288;-58
2024/01/23 12:38:17;;;;;;;26.35;3.30;;;;;;;11.07;74.99;101591.09;8328308;28;20038;-58
2024/01/23 12:42:18;;;;;;;19.63;2.83;;;;;;;11.11;74.66;101582.63;8317454;28;20408;-58
2024/01/23 12:46:19;;;;;;;27.77;3.80;;;;;;;11.13;75.09;101586.03;8327755;28;20048;-58
2024/01/23 12:50:22;;;;;;;31.33;4.45;;;;;;;11.19;73.96;101591.00;8326793;28;20061;-55
2024/01/23 12:54:22;;;;;;;23.88;3.20;;;;;;;11.30;73.71;101572.09;8312411;28;20038;-58
2024/01/23 12:58:23;;;;;;;21.13;2.58;;;;;;;11.37;72.16;101581.44;8326184;28;20040;-59
2024/01/23 13:02:25;;;;;;;25.35;3.72;;;;;;;11.48;72.46;101570.66;8327079;28;20042;-57
2024/01/23 13:06:25;;;;;;;16.60;2.67;;;;;;;11.46;72.86;101566.31;8327686;28;20061;-60
2024/01/23 13:10:26;;;;;;;19.73;3.25;;;;;;;11.41;72.90;101563.97;8320773;28;20041;-58
2024/01/23 13:14:28;;;;;;;23.38;3.35;;;;;;;11.34;73.22;101556.44;8323999;28;20041;-57
2024/01/23 13:18:29;;;;;;;19.15;3.30;;;;;;;11.32;73.63;101556.56;8326398;28;20040;-55
2024/01/23 13:22:29;;;;;;;30.67;4.13;;;;;;;11.18;74.48;101551.38;8326608;28;20061;-55
2024/01/23 13:26:29;;;;;;;24.75;3.35;;;;;;;11.12;75.58;101551.84;8327199;28;20040;-58
2024/01/23 13:30:30;;;;;;;21.80;3.70;;;;;;;11.18;74.71;101545.97;8324394;28;20521;-58
2024/01/23 13:34:32;;;;;;;24.58;2.95;;;;;;;11.24;73.85;101540.06;8315187;28;20041;-57
2024/01/23 13:38:33;;;;;;;16.25;3.25;;;;;;;11.24;74.54;101522.97;8311819;28;20423;-55
2024/01/23 13:42:33;;;;;;;19.88;2.95;;;;;;;11.28;73.62;101522.59;8305233;28;20065;-57
2024/01/23 13:46:34;;;;;;;27.98;4.32;;;;;;;11.30;74.08;101527.88;8326871;28;20041;-56
2024/01/23 13:50:35;;;;;;;33.63;4.22;;;;;;;11.37;74.67;101543.53;8333688;28;20395;-55
2024/01/23 13:54:35;;;;;;;23.02;3.67;;;;;;;11.49;73.96;101536.28;8336419;28;20053;-54
2024/01/23 13:58:36;;;;;;;25.27;2.78;;;;;;;11.53;73.41;101535.06;8320819;28;20037;-55
2024/01/23 14:02:36;;;;;;;21.65;4.15;;;;;;;11.52;74.23;101538.75;8318859;28;20045;-56
2024/01/23 14:06:37;;;;;;;21.15;3.95;;;;;;;11.54;74.20;101520.53;8320094;28;20034;-56
2024/01/23 14:10:40;;;;;;;27.58;3.78;;;;;;;11.58;74.88;101517.47;8315016;28;20381;-55
2024/01/23 14:14:40;;;;;;;27.02;4.82;;;;;;;11.53;75.07;101511.53;8316489;28;20038;-57
2024/01/23 14:18:41;;;;;;;24.10;4.40;;;;;;;11.55;75.31;101516.84;8318712;28;20577;-56
2024/01/23 14:22:45;;;;;;;29.88;4.40;;;;;;;11.56;75.10;101508.59;8303280;28;20103;-54
2024/01/23 14:26:45;;;;;;;21.98;3.35;;;;;;;11.47;75.45;101503.06;8302494;28;20586;-56
2024/01/23 14:30:49;;;;;;;25.08;3.08;;;;;;;11.42;75.19;101484.47;8315478;28;20428;-56
2024/01/23 14:34:50;;;;;;;16.52;2.40;;;;;;;11.46;74.65;101485.06;8318060;28;20041;-57
2024/01/23 14:38:50;;;;;;;26.33;3.75;;;;;;;11.46;74.34;101488.66;8318383;28;20041;-57
2024/01/23 14:42:52;;;;;;;19.08;3.00;;;;;;;11.41;75.13;101488.16;8318356;28;20116;-57
2024/01/23 14:46:52;;;;;;;23.17;2.60;;;;;;;11.43;74.59;101488.91;8318744;28;20088;-56
2024/01/23 14:50:53;;;;;;;17.88;3.20;;;;;;;11.36;76.63;101487.69;8317807;28;20514;-57
2024/01/23 14:54:53;;;;;;;28.80;3.88;;;;;;;11.24;77.39;101485.94;8312416;28;20045;-56
2024/01/23 14:58:55;;;;;;;27.02;3.03;;;;;;;11.16;78.29;101484.81;8306176;28;20041;-55
2024/01/23 15:02:56;;;;;;;24.75;3.78;;;;;;;11.03;79.88;101478.63;8316572;28;20474;-56
2024/01/23 15:06:58;;;;;;;31.67;4.63;;;;;;;10.92;80.45;101467.81;8307911;28;20294;-55
2024/01/23 15:10:59;;;;;;;27.77;3.55;;;;;;;10.86;81.33;101471.81;8302147;28;20483;-55
2024/01/23 15:14:59;;;;;;;29.70;4.97;;;;;;;10.68;83.70;101467.88;8304663;28;20053;-56
2024/01/23 15:19:00;;;;;;;23.58;3.45;;;;;;;10.49;86.78;101450.47;8303046;28;20045;-55
2024/01/23 15:23:01;;;;;;;26.25;3.30;;;;;;;10.27;88.61;101443.09;8296978;28;20547;-56
2024/01/23 15:27:02;;;;;;;23.60;3.53;;;;;;;10.28;88.93;101442.13;8315630;28;20046;-57
2024/01/23 15:31:03;;;;;;;23.17;3.40;;;;;;;10.23;90.34;101447.03;8331356;28;20128;-57
2024/01/23 15:35:04;;;;;;;20.05;3.08;;;;;;;10.22;89.96;101439.91;8327305;28;20073;-57
2024/01/23 15:39:06;;;;;;;12.57;2.80;;;;;;;10.15;91.83;101438.63;8316370;28;20052;-57
2024/01/23 15:43:06;;;;;;;17.83;3.17;;;;;;;10.04;93.08;101435.84;8318271;28;20471;-57
2024/01/23 15:47:07;;;;;;;21.23;2.95;;;;;;;10.00;94.10;101407.31;8310216;28;20060;-56
2024/01/23 15:51:07;;;;;;;23.08;3.00;;;;;;;9.95;94.08;101398.72;8311976;28;20040;-58
2024/01/23 15:55:08;;;;;;;23.52;2.97;;;;;;;9.97;92.73;101386.81;8322563;28;20041;-58
2024/01/23 15:59:09;;;;;;;22.02;3.10;;;;;;;10.01;93.15;101382.88;8320818;28;20353;-58
2024/01/23 16:03:09;;;;;;;22.15;3.78;;;;;;;10.08;92.31;101371.66;8328807;28;20041;-56
2024/01/23 16:07:10;;;;;;;26.08;3.80;;;;;;;10.03;91.94;101371.97;8309522;28;20399;-57
2024/01/23 16:11:12;;;;;;;17.63;2.47;;;;;;;10.08;93.14;101361.72;8328080;28;20029;-57
2024/01/23 16:15:12;;;;;;;20.23;2.90;;;;;;;10.00;95.92;101358.69;8313351;28;20030;-58
2024/01/23 16:19:13;;;;;;;22.73;2.85;;;;;;;10.00;95.75;101348.75;8312689;28;20131;-56
2024/01/23 16:23:14;;;;;;;24.58;2.30;;;;;;;9.90;97.13;101352.28;8295079;28;20037;-55
2024/01/23 16:27:14;;;;;;;12.82;2.25;;;;;;;9.91;96.67;101338.66;8304450;28;20139;-58
2024/01/23 16:31:15;;;;;;;13.75;2.17;;;;;;;9.93;94.90;101308.81;8304313;28;20065;-58
2024/01/23 16:35:16;;;;;;;11.48;1.95;;;;;;;10.00;93.65;101296.56;8313888;28;20554;-57
2024/01/23 16:39:17;;;;;;;12.35;2.25;;;;;;;10.12;92.12;101294.81;8315368;28;20369;-56
2024/01/23 16:43:17;;;;;;;16.73;1.70;;;;;;;10.10;91.66;101270.63;8310217;28;20045;-56
2024/01/23 16:47:18;;;;;;;8.52;1.55;;;;;;;10.26;90.60;101279.25;8298961;28;20173;-56
2024/01/23 16:51:18;;;;;;;11.63;2.00;;;;;;;10.26;90.83;101278.38;8312286;28;20436;-57
2024/01/23 16:55:19;;;;;;;7.43;1.38;;;;;;;10.36;90.71;101264.00;8311212;28;20034;-57
2024/01/23 16:59:19;;;;;;;6.07;1.10;;;;;;;10.21;92.46;101259.81;8310853;28;20056;-57
2024/01/23 17:03:20;;;;;;;10.52;1.60;;;;;;;10.14;92.49;101247.78;8310803;28;20676;-56
2024/01/23 17:07:20;;;;;;;6.60;1.23;;;;;;;10.12;93.10;101244.31;8312189;28;20518;-57
2024/01/23 17:11:20;;;;;;;10.20;2.72;;;;;;;10.05;94.92;101248.44;8305711;28;20049;-57
2024/01/23 17:15:21;;;;;;;4.45;1.80;;;;;;;10.09;93.73;101233.75;8309441;28;20719;-57
2024/01/23 17:19:21;;;;;;;5.70;1.15;;;;;;;10.07;93.17;101216.81;8313612;28;20038;-57
2024/01/23 17:23:22;;;;;;;3.28;1.10;;;;;;;10.11;92.33;101210.19;8320204;28;20034;-57
2024/01/23 17:27:23;;;;;;;11.25;2.05;;;;;;;10.20;91.85;101212.16;8319901;28;20135;-57
2024/01/23 17:31:24;;;;;;;5.13;1.48;;;;;;;10.30;91.09;101215.84;8320462;28;20052;-58
2024/01/23 17:35:24;;;;;;;5.28;1.13;;;;;;;10.35;90.76;101197.44;8319214;28;20057;-57
2024/01/23 17:39:25;;;;;;;5.85;1.75;;;;;;;10.47;89.55;101218.09;8318847;28;20045;-56
2024/01/23 17:43:25;;;;;;;10.57;1.60;;;;;;;10.46;90.84;101192.00;8315584;28;20038;-58
2024/01/23 17:47:26;;;;;;;6.32;1.45;;;;;;;10.29;92.97;101187.13;8301286;28;20113;-58
2024/01/23 17:51:26;;;;;;;13.80;2.30;;;;;;;10.12;96.63;101189.44;8304613;28;20037;-56
2024/01/23 17:55:26;;;;;;;11.60;1.70;;;;;;;10.12;96.95;101173.22;8304300;28;20443;-57
2024/01/23 17:59:27;;;;;;;11.43;2.15;;;;;;;10.07;99.23;101159.22;8288686;28;20563;-56
2024/01/23 18:03:27;;;;;;;7.03;1.30;;;;;;;10.07;99.53;101154.69;8274624;28;20306;-55
2024/01/23 18:07:28;;;;;;;10.98;2.42;;;;;;;10.07;100.00;101138.47;8269563;28;20278;-58
2024/01/23 18:11:29;;;;;;;9.88;1.65;;;;;;;10.07;100.00;101110.59;8302362;28;20041;-56
2024/01/23 18:15:29;;;;;;;9.52;1.95;;;;;;;10.01;100.00;101101.09;8299030;28;20042;-56
2024/01/23 18:19:30;;;;;;;10.23;1.60;;;;;;;10.01;100.00;101112.75;8317800;28;20161;-56
2024/01/23 18:23:31;;;;;;;8.75;1.73;;;;;;;10.01;100.00;101084.91;8275679;28;20145;-56
2024/01/23 18:27:31;;;;;;;7.88;2.10;;;;;;;10.10;100.00;101076.09;8275551;28;20042;-56
2024/01/23 18:31:33;;;;;;;7.03;1.88;;;;;;;10.12;100.00;101074.09;8294494;28;20049;-57
2024/01/23 18:35:33;;;;;;;7.88;2.47;;;;;;;10.24;100.00;101081.22;8313895;28;20045;-57